Time;durP1;ratioP1;P1;durP2;ratioP2;P2;SDS_P1;SDS_P2;PMS_P1;PMS_P2;Temp;Humidity;BMP_temperature;BMP_pressure;BME280_temperature;BME280_humidity;BME280_pressure;Samples;Min_cycle;Max_cycle;Signal;HPM_P1;HPM_P2
2021/03/21 00:00:33;;;;;;;7.00;3.92;;;10.60;73.10;;;;;;5049132;28;20029;-63
2021/03/21 00:02:59;;;;;;;7.28;4.35;;;10.50;73.40;;;;;;5050739;28;20094;-63
2021/03/21 00:05:26;;;;;;;7.07;4.35;;;10.40;74.00;;;;;;5053912;28;20568;-63
2021/03/21 00:08:00;;;;;;;8.52;4.50;;;10.30;74.50;;;;;;5045508;28;20123;-63
2021/03/21 00:10:27;;;;;;;9.75;4.32;;;10.30;74.80;;;;;;5045490;28;20103;-64
2021/03/21 00:12:53;;;;;;;6.57;4.15;;;10.20;75.00;;;;;;5045215;28;20063;-63
2021/03/21 00:15:20;;;;;;;8.48;4.90;;;10.20;75.00;;;;;;5049702;28;20130;-63
2021/03/21 00:17:47;;;;;;;8.95;4.28;;;10.20;75.40;;;;;;5064585;28;20028;-62
2021/03/21 00:20:14;;;;;;;7.68;4.45;;;10.30;75.20;;;;;;5056427;28;20030;-63
2021/03/21 00:22:40;;;;;;;7.47;4.32;;;10.30;75.20;;;;;;5047250;28;20032;-63
2021/03/21 00:25:11;;;;;;;8.13;4.90;;;10.40;74.70;;;;;;5052384;28;20527;-63
2021/03/21 00:27:36;;;;;;;8.77;5.15;;;10.30;75.20;;;;;;5049320;28;20032;-63
2021/03/21 00:30:07;;;;;;;9.80;5.65;;;10.30;75.30;;;;;;5053662;28;20037;-63
2021/03/21 00:32:33;;;;;;;8.32;5.38;;;10.20;75.50;;;;;;5049647;28;20029;-63
2021/03/21 00:34:58;;;;;;;8.32;5.60;;;10.20;75.80;;;;;;5064826;28;20036;-64
2021/03/21 00:37:24;;;;;;;9.10;5.78;;;10.00;76.10;;;;;;5047251;28;20029;-63
2021/03/21 00:39:50;;;;;;;8.77;5.47;;;10.00;76.40;;;;;;5047760;28;20122;-63
2021/03/21 00:42:15;;;;;;;9.77;5.90;;;10.00;76.40;;;;;;5050852;28;20025;-63
2021/03/21 00:44:41;;;;;;;9.43;5.45;;;9.90;76.50;;;;;;5049943;28;20037;-63
2021/03/21 00:47:07;;;;;;;9.27;5.75;;;9.90;76.40;;;;;;5048745;28;20367;-63
2021/03/21 00:49:32;;;;;;;10.10;5.60;;;10.10;75.60;;;;;;5049341;28;20067;-64
2021/03/21 00:51:58;;;;;;;8.40;5.30;;;10.00;76.00;;;;;;5047836;28;20108;-64
2021/03/21 00:54:24;;;;;;;9.95;5.53;;;10.10;75.30;;;;;;5049478;28;20466;-63
2021/03/21 00:56:49;;;;;;;9.18;6.13;;;10.10;75.80;;;;;;5047853;28;20033;-63
2021/03/21 00:59:15;;;;;;;8.93;5.07;;;10.20;75.30;;;;;;5050685;28;20033;-63
2021/03/21 01:01:41;;;;;;;8.35;5.00;;;10.10;75.70;;;;;;5045436;28;20040;-63
2021/03/21 01:04:06;;;;;;;7.68;4.82;;;10.10;75.80;;;;;;5049894;28;20037;-63
2021/03/21 01:06:33;;;;;;;9.82;5.03;;;10.10;75.80;;;;;;5040885;28;20150;-64
2021/03/21 01:09:04;;;;;;;8.68;4.68;;;10.20;75.10;;;;;;5044510;28;20096;-63
2021/03/21 01:11:33;;;;;;;8.05;5.07;;;10.10;75.60;;;;;;5050434;28;20033;-63
2021/03/21 01:14:00;;;;;;;7.65;4.70;;;10.10;75.40;;;;;;5048357;28;20071;-63
2021/03/21 01:16:37;;;;;;;10.23;4.93;;;10.00;76.00;;;;;;5047686;28;20036;-63
2021/03/21 01:19:04;;;;;;;9.40;5.70;;;10.10;75.40;;;;;;5049230;28;20133;-63
2021/03/21 01:21:32;;;;;;;7.18;3.85;;;10.00;75.80;;;;;;5046926;28;20053;-63
2021/03/21 01:23:58;;;;;;;6.90;3.80;;;10.00;75.80;;;;;;5042445;28;20093;-63
2021/03/21 01:26:26;;;;;;;7.50;4.03;;;9.90;76.10;;;;;;5043240;28;20029;-63
2021/03/21 01:28:53;;;;;;;6.60;3.35;;;9.80;76.30;;;;;;5058430;28;20025;-63
2021/03/21 01:31:21;;;;;;;7.25;4.30;;;9.80;76.50;;;;;;5048257;28;20036;-63
2021/03/21 01:33:48;;;;;;;7.07;3.40;;;9.80;76.70;;;;;;5049789;28;20052;-63
2021/03/21 01:36:24;;;;;;;5.93;2.83;;;9.80;76.70;;;;;;5044118;28;20026;-63
2021/03/21 01:38:51;;;;;;;7.00;3.40;;;9.80;76.70;;;;;;5045611;28;20544;-63
2021/03/21 01:41:27;;;;;;;5.40;3.05;;;9.80;76.80;;;;;;5053049;28;20031;-63
2021/03/21 01:43:53;;;;;;;5.25;2.95;;;9.90;76.20;;;;;;5049870;28;20778;-63
2021/03/21 01:46:39;;;;;;;7.07;2.85;;;9.90;76.10;;;;;;5046273;28;20029;-63
2021/03/21 01:49:29;;;;;;;7.78;2.85;;;9.90;76.00;;;;;;5034567;28;20352;-63
2021/03/21 01:51:57;;;;;;;4.95;2.67;;;9.90;76.10;;;;;;5047097;28;20033;-63
2021/03/21 01:54:24;;;;;;;7.13;3.03;;;9.80;76.60;;;;;;5053320;28;20036;-63
2021/03/21 01:56:51;;;;;;;5.72;2.40;;;9.80;76.50;;;;;;5060576;28;20040;-63
2021/03/21 01:59:23;;;;;;;5.00;3.03;;;9.80;76.50;;;;;;5059362;28;20053;-64
2021/03/21 02:01:51;;;;;;;4.80;2.05;;;9.90;76.10;;;;;;5051508;28;20021;-63
2021/03/21 02:04:17;;;;;;;4.30;1.90;;;9.70;76.60;;;;;;5049340;28;20094;-63
2021/03/21 02:07:06;;;;;;;4.28;1.92;;;9.70;76.40;;;;;;5051857;28;20094;-62
2021/03/21 02:09:56;;;;;;;4.72;2.03;;;9.70;77.00;;;;;;5052753;28;20332;-62
2021/03/21 02:12:45;;;;;;;6.20;2.88;;;9.70;77.00;;;;;;5046903;28;20029;-63
2021/03/21 02:15:15;;;;;;;6.60;2.88;;;9.70;77.00;;;;;;5042557;28;20040;-63
2021/03/21 02:18:03;;;;;;;8.95;3.78;;;9.70;77.00;;;;;;5053246;28;20514;-63
2021/03/21 02:20:59;;;;;;;7.95;3.63;;;9.70;76.50;;;;;;5054192;28;20056;-63
2021/03/21 02:23:39;;;;;;;4.25;2.30;;;9.70;76.50;;;;;;5052832;28;20108;-63
2021/03/21 02:26:19;;;;;;;4.28;2.25;;;9.80;76.50;;;;;;5044982;28;20448;-63
2021/03/21 02:29:03;;;;;;;5.45;2.67;;;9.70;76.90;;;;;;5062796;28;20025;-63
2021/03/21 02:31:34;;;;;;;4.50;2.47;;;9.80;76.60;;;;;;5062817;28;20112;-63
2021/03/21 02:34:13;;;;;;;5.35;3.10;;;9.80;76.50;;;;;;5044487;28;20041;-63
2021/03/21 02:36:49;;;;;;;5.38;3.22;;;9.80;76.50;;;;;;5056269;28;20021;-63
2021/03/21 02:39:30;;;;;;;6.28;3.40;;;9.80;76.50;;;;;;5057751;28;20029;-62
2021/03/21 02:42:04;;;;;;;6.38;3.13;;;9.80;76.60;;;;;;5056344;28;20017;-62
2021/03/21 02:44:39;;;;;;;6.28;3.70;;;9.80;76.90;;;;;;5067412;28;20115;-63
2021/03/21 02:47:18;;;;;;;6.32;3.92;;;9.60;77.10;;;;;;5049929;28;20036;-63
2021/03/21 02:49:48;;;;;;;6.10;3.50;;;9.60;77.30;;;;;;5033354;28;20471;-62
2021/03/21 02:52:42;;;;;;;7.28;4.30;;;9.70;77.00;;;;;;5050542;28;20032;-62
2021/03/21 02:55:26;;;;;;;7.20;4.40;;;9.60;77.50;;;;;;5048300;28;20028;-65
2021/03/21 02:58:01;;;;;;;;;;;9.70;77.50;;;;;;5059492;28;20093;-63
2021/03/21 03:00:33;;;;;;;7.28;4.25;;;9.70;77.20;;;;;;5051682;28;19909;-64
2021/03/21 03:03:02;;;;;;;7.07;4.50;;;9.60;77.70;;;;;;5051060;28;20107;-63
2021/03/21 03:05:37;;;;;;;7.07;4.15;;;9.70;77.60;;;;;;5068174;28;20044;-64
2021/03/21 03:08:11;;;;;;;7.38;4.47;;;9.50;78.00;;;;;;5051205;28;20528;-63
2021/03/21 03:11:02;;;;;;;7.70;4.90;;;9.60;78.00;;;;;;5047175;28;20082;-64
2021/03/21 03:13:39;;;;;;;8.15;5.00;;;9.80;77.50;;;;;;5052103;28;20036;-63
2021/03/21 03:16:28;;;;;;;9.70;6.35;;;9.70;78.00;;;;;;5071038;28;20493;-63
2021/03/21 03:19:04;;;;;;;8.20;4.93;;;9.70;78.10;;;;;;5061805;28;20029;-63
2021/03/21 03:21:50;;;;;;;8.30;5.55;;;9.70;78.20;;;;;;5052029;28;20055;-63
2021/03/21 03:24:39;;;;;;;9.10;5.28;;;9.80;78.00;;;;;;5049445;28;20037;-63
2021/03/21 03:27:19;;;;;;;7.82;4.93;;;9.80;78.10;;;;;;5050068;28;20043;-63
2021/03/21 03:29:55;;;;;;;8.85;5.38;;;9.80;78.20;;;;;;5036096;28;20023;-63
2021/03/21 03:32:21;;;;;;;10.80;5.88;;;9.80;78.70;;;;;;5049839;28;20111;-63
2021/03/21 03:34:53;;;;;;;8.77;5.60;;;9.80;78.80;;;;;;5059069;28;20115;-63
2021/03/21 03:37:19;;;;;;;9.40;6.30;;;9.80;78.40;;;;;;5051330;28;20028;-63
2021/03/21 03:39:45;;;;;;;8.75;5.95;;;9.70;78.90;;;;;;5051354;28;20032;-63
2021/03/21 03:42:45;;;;;;;9.57;5.55;;;9.80;78.60;;;;;;5051371;28;20067;-63
2021/03/21 03:45:49;;;;;;;9.73;6.18;;;9.70;79.10;;;;;;5049528;28;20513;-63
2021/03/21 03:48:42;;;;;;;9.85;6.82;;;9.80;79.00;;;;;;5058486;28;20383;-63
2021/03/21 03:51:18;;;;;;;11.75;6.85;;;9.80;79.70;;;;;;5051272;28;20021;-63
2021/03/21 03:54:00;;;;;;;11.90;7.22;;;9.80;79.20;;;;;;5049846;28;20119;-63
2021/03/21 03:56:40;;;;;;;10.32;6.70;;;9.80;79.10;;;;;;5038356;28;20067;-63
2021/03/21 03:59:24;;;;;;;12.35;7.20;;;9.70;79.60;;;;;;5046624;28;20033;-63
2021/03/21 04:02:07;;;;;;;12.05;6.75;;;9.70;79.80;;;;;;5055727;28;20490;-63
2021/03/21 04:04:53;;;;;;;10.13;6.90;;;9.80;79.50;;;;;;5041268;28;20028;-63
2021/03/21 04:07:40;;;;;;;12.48;7.75;;;9.70;80.00;;;;;;5050596;28;20307;-63
2021/03/21 04:10:17;;;;;;;12.07;8.52;;;9.80;80.00;;;;;;5049660;28;20079;-63
2021/03/21 04:13:03;;;;;;;12.00;8.10;;;9.70;79.90;;;;;;5043463;28;20026;-63
2021/03/21 04:15:32;;;;;;;10.68;7.53;;;9.70;80.00;;;;;;5037581;28;20360;-63
2021/03/21 04:18:22;;;;;;;12.77;7.60;;;9.80;80.10;;;;;;5049095;28;20086;-63
2021/03/21 04:20:58;;;;;;;12.32;8.40;;;9.80;80.10;;;;;;5061815;28;20489;-64
2021/03/21 04:23:48;;;;;;;12.75;7.63;;;9.80;79.80;;;;;;5046998;28;20442;-65
2021/03/21 04:26:20;;;;;;;12.88;7.40;;;9.70;79.90;;;;;;5043646;28;20044;-64
2021/03/21 04:29:03;;;;;;;11.88;7.40;;;9.70;80.80;;;;;;5050322;28;20021;-63
2021/03/21 04:31:30;;;;;;;11.52;7.10;;;9.70;80.20;;;;;;5047424;28;20432;-62
2021/03/21 04:34:00;;;;;;;13.85;7.57;;;9.90;80.20;;;;;;5041048;28;20044;-62
2021/03/21 04:36:33;;;;;;;12.82;7.45;;;9.80;80.10;;;;;;5049350;28;20061;-62
2021/03/21 04:39:03;;;;;;;12.70;7.00;;;9.80;80.10;;;;;;5050287;28;20475;-62
2021/03/21 04:41:46;;;;;;;11.95;7.93;;;9.80;79.80;;;;;;5047067;28;20505;-63
2021/03/21 04:44:22;;;;;;;12.93;8.40;;;9.70;80.30;;;;;;5051047;28;20085;-63
2021/03/21 04:47:29;;;;;;;12.77;8.75;;;9.80;79.80;;;;;;5047223;28;20044;-63
2021/03/21 04:49:56;;;;;;;16.55;8.23;;;9.80;81.00;;;;;;5045372;28;20143;-63
2021/03/21 04:52:46;;;;;;;13.32;8.55;;;9.90;79.70;;;;;;5049657;28;20096;-63
2021/03/21 04:55:19;;;;;;;13.88;9.45;;;9.80;80.10;;;;;;5048159;28;20075;-64
2021/03/21 04:57:49;;;;;;;12.97;8.57;;;9.80;79.80;;;;;;5049075;28;20090;-63
2021/03/21 05:00:28;;;;;;;13.80;8.30;;;9.90;79.70;;;;;;5060385;28;20028;-63
2021/03/21 05:02:59;;;;;;;13.20;8.77;;;9.90;79.60;;;;;;5047610;28;20039;-63
2021/03/21 05:05:42;;;;;;;14.75;8.45;;;10.00;79.40;;;;;;5049775;28;20029;-64
2021/03/21 05:08:21;;;;;;;13.93;9.17;;;10.10;79.20;;;;;;5047248;28;20087;-63
2021/03/21 05:10:52;;;;;;;15.23;7.97;;;10.10;78.90;;;;;;5048273;28;20120;-63
2021/03/21 05:13:22;;;;;;;13.68;8.55;;;10.10;78.80;;;;;;5051668;28;20067;-63
2021/03/21 05:15:56;;;;;;;12.88;7.88;;;10.10;78.70;;;;;;5048988;28;20025;-63
2021/03/21 05:18:50;;;;;;;14.68;8.88;;;10.10;78.70;;;;;;5065529;28;20040;-63
2021/03/21 05:21:26;;;;;;;;;;;10.10;78.70;;;;;;5050117;28;20057;-63
2021/03/21 05:24:01;;;;;;;15.10;8.57;;;10.20;78.60;;;;;;5069721;28;19912;-63
2021/03/21 05:26:42;;;;;;;10.82;6.55;;;10.10;78.20;;;;;;5053257;28;20024;-63
2021/03/21 05:29:36;;;;;;;17.08;7.72;;;10.10;78.10;;;;;;5051322;28;20012;-63
2021/03/21 05:32:02;;;;;;;14.07;7.15;;;10.10;78.10;;;;;;5053423;28;20047;-64
2021/03/21 05:34:28;;;;;;;18.90;7.82;;;10.20;77.70;;;;;;5053149;28;20044;-63
2021/03/21 05:37:15;;;;;;;14.93;8.65;;;10.10;77.60;;;;;;5042643;28;20491;-63
2021/03/21 05:39:49;;;;;;;16.27;8.35;;;10.00;78.10;;;;;;5053019;28;20056;-64
2021/03/21 05:42:33;;;;;;;13.38;7.00;;;10.00;77.80;;;;;;5052393;28;20545;-63
2021/03/21 05:45:20;;;;;;;12.07;5.53;;;9.90;78.00;;;;;;5053692;28;20033;-64
2021/03/21 05:47:54;;;;;;;14.85;5.53;;;10.00;78.00;;;;;;5061859;28;20466;-63
2021/03/21 05:50:35;;;;;;;11.15;6.22;;;10.00;77.20;;;;;;5065340;28;20444;-63
2021/03/21 05:53:28;;;;;;;11.38;5.13;;;9.90;77.60;;;;;;5052246;28;20474;-64
2021/03/21 05:56:09;;;;;;;11.57;5.75;;;10.00;77.10;;;;;;5073088;28;20025;-62
2021/03/21 05:59:02;;;;;;;10.93;4.75;;;9.90;77.60;;;;;;5052941;28;20479;-64
2021/03/21 06:02:10;;;;;;;11.00;3.70;;;9.90;77.50;;;;;;5067355;28;20040;-63
2021/03/21 06:05:13;;;;;;;8.13;3.75;;;9.90;76.40;;;;;;5038387;28;20032;-63
2021/03/21 06:08:26;;;;;;;6.30;2.25;;;9.80;77.00;;;;;;5052798;28;20191;-64
2021/03/21 06:11:21;;;;;;;8.73;2.92;;;9.80;77.00;;;;;;5067824;28;20107;-63
2021/03/21 06:14:18;;;;;;;9.98;2.67;;;9.70;77.40;;;;;;5052100;28;20044;-64
2021/03/21 06:17:13;;;;;;;10.80;2.60;;;9.70;77.20;;;;;;5050286;28;20033;-63
2021/03/21 06:20:13;;;;;;;13.63;3.08;;;9.70;77.70;;;;;;5048599;28;20033;-63
2021/03/21 06:23:12;;;;;;;7.35;2.55;;;9.70;77.80;;;;;;5065441;28;20147;-63
2021/03/21 06:25:56;;;;;;;13.25;2.72;;;9.70;77.80;;;;;;5049365;28;20033;-63
2021/03/21 06:28:53;;;;;;;7.18;2.35;;;9.70;77.90;;;;;;5052419;28;20402;-63
2021/03/21 06:31:38;;;;;;;5.95;2.00;;;9.70;77.60;;;;;;5045110;28;20103;-63
2021/03/21 06:34:32;;;;;;;7.45;1.85;;;9.70;78.00;;;;;;5052447;28;20049;-64
2021/03/21 06:37:05;;;;;;;9.35;1.90;;;9.60;78.80;;;;;;5047087;28;20044;-62
2021/03/21 06:39:40;;;;;;;8.25;1.70;;;9.60;79.20;;;;;;5038154;28;20483;-63
2021/03/21 06:42:21;;;;;;;6.20;2.00;;;9.60;79.60;;;;;;5049620;28;20175;-64
2021/03/21 06:45:12;;;;;;;8.48;1.88;;;9.50;80.10;;;;;;5043613;28;20506;-64
2021/03/21 06:47:47;;;;;;;8.15;1.85;;;9.60;80.70;;;;;;5049255;28;20111;-64
2021/03/21 06:50:35;;;;;;;8.70;1.85;;;9.70;79.90;;;;;;5047048;28;20037;-64
2021/03/21 06:53:09;;;;;;;5.60;2.42;;;9.60;79.80;;;;;;5052100;28;20109;-63
2021/03/21 06:55:41;;;;;;;12.52;2.70;;;9.70;79.90;;;;;;5045818;28;20028;-64
2021/03/21 06:58:25;;;;;;;8.90;2.75;;;9.80;78.70;;;;;;5051247;28;20029;-63
2021/03/21 07:01:23;;;;;;;10.25;1.77;;;9.70;78.70;;;;;;5046053;28;20119;-64
2021/03/21 07:04:07;;;;;;;6.22;1.73;;;9.60;78.90;;;;;;5047901;28;20036;-64
2021/03/21 07:07:14;;;;;;;9.50;2.65;;;9.50;79.60;;;;;;5050862;28;20148;-64
2021/03/21 07:10:09;;;;;;;10.10;2.63;;;9.60;79.80;;;;;;5045988;28;20037;-64
2021/03/21 07:12:37;;;;;;;6.00;1.65;;;9.60;80.00;;;;;;5040779;28;20060;-64
2021/03/21 07:15:23;;;;;;;11.00;2.45;;;9.70;79.40;;;;;;5051454;28;20041;-64
2021/03/21 07:18:13;;;;;;;14.00;2.10;;;9.70;78.70;;;;;;5063559;28;20028;-64
2021/03/21 07:20:58;;;;;;;4.95;1.60;;;9.80;77.60;;;;;;5045581;28;20028;-65
2021/03/21 07:24:17;;;;;;;9.73;2.13;;;9.70;78.00;;;;;;5049105;28;20044;-66
2021/03/21 07:27:20;;;;;;;11.88;1.90;;;9.70;77.70;;;;;;5049834;28;20090;-66
2021/03/21 07:29:54;;;;;;;9.95;1.85;;;9.90;76.70;;;;;;5074317;28;20033;-66
2021/03/21 07:32:47;;;;;;;11.05;2.50;;;9.90;77.20;;;;;;5063755;28;20455;-66
2021/03/21 07:35:17;;;;;;;7.80;1.67;;;9.90;76.80;;;;;;5045399;28;20044;-66
2021/03/21 07:37:59;;;;;;;7.80;3.17;;;9.90;76.40;;;;;;5050393;28;20150;-65
2021/03/21 07:40:51;;;;;;;7.05;2.17;;;10.00;76.50;;;;;;5042781;28;20037;-64
2021/03/21 07:43:22;;;;;;;8.90;2.88;;;10.20;76.20;;;;;;5045792;28;20032;-64
2021/03/21 07:45:50;;;;;;;6.80;1.48;;;10.40;75.20;;;;;;5041706;28;20096;-64
2021/03/21 07:48:42;;;;;;;11.05;2.35;;;10.80;72.90;;;;;;5046735;28;20100;-64
2021/03/21 07:51:29;;;;;;;8.80;1.95;;;10.70;73.40;;;;;;5042764;28;20040;-66
2021/03/21 07:54:19;;;;;;;11.18;3.05;;;10.80;72.10;;;;;;5059399;28;20033;-64
2021/03/21 07:56:49;;;;;;;8.60;2.00;;;10.70;71.80;;;;;;5045286;28;20029;-64
2021/03/21 07:59:20;;;;;;;8.15;2.00;;;10.60;71.00;;;;;;5064208;28;20048;-64
2021/03/21 08:01:46;;;;;;;7.75;2.35;;;10.60;70.80;;;;;;5059562;28;20432;-63
2021/03/21 08:04:52;;;;;;;10.68;3.17;;;10.60;71.10;;;;;;5060833;28;20056;-64
2021/03/21 08:07:28;;;;;;;11.43;3.25;;;10.60;71.20;;;;;;5032736;28;20072;-64
2021/03/21 08:09:53;;;;;;;12.18;3.15;;;10.70;70.10;;;;;;5032625;28;20033;-65
2021/03/21 08:12:19;;;;;;;12.00;3.22;;;10.70;70.20;;;;;;5038199;28;20363;-65
2021/03/21 08:14:56;;;;;;;11.35;2.28;;;10.70;70.80;;;;;;5047575;28;20474;-65
2021/03/21 08:17:31;;;;;;;10.80;2.15;;;10.80;69.80;;;;;;5063762;28;20048;-65
2021/03/21 08:20:15;;;;;;;11.73;2.90;;;10.70;70.30;;;;;;5048285;28;20537;-66
2021/03/21 08:22:41;;;;;;;11.75;2.38;;;10.70;69.70;;;;;;5064380;28;20119;-65
2021/03/21 08:25:26;;;;;;;15.20;3.85;;;10.80;69.20;;;;;;5049760;28;20045;-63
2021/03/21 08:27:55;;;;;;;17.40;3.97;;;11.40;65.50;;;;;;5045713;28;20383;-65
2021/03/21 08:30:26;;;;;;;14.35;2.50;;;11.30;65.90;;;;;;5045670;28;20024;-66
2021/03/21 08:33:00;;;;;;;15.85;3.13;;;11.50;64.50;;;;;;5050056;28;20025;-65
2021/03/21 08:35:29;;;;;;;12.82;3.15;;;11.40;65.30;;;;;;5051113;28;20108;-64
2021/03/21 08:37:57;;;;;;;16.65;3.30;;;11.20;64.30;;;;;;5043474;28;20041;-62
2021/03/21 08:40:32;;;;;;;17.42;3.00;;;11.10;64.30;;;;;;5049617;28;20534;-65
2021/03/21 08:43:16;;;;;;;19.55;4.15;;;11.10;64.80;;;;;;5043475;28;20029;-65
2021/03/21 08:45:46;;;;;;;;;;;11.00;65.10;;;;;;5048944;28;20069;-63
2021/03/21 08:48:21;;;;;;;16.98;3.70;;;11.00;63.70;;;;;;5049413;28;19930;-64
2021/03/21 08:50:49;;;;;;;16.80;3.80;;;10.90;64.40;;;;;;5048628;28;20017;-64
2021/03/21 08:53:41;;;;;;;22.67;4.93;;;11.00;65.40;;;;;;5043568;28;20040;-64
2021/03/21 08:56:15;;;;;;;21.98;4.63;;;11.10;63.80;;;;;;5035456;28;20347;-64
2021/03/21 08:58:41;;;;;;;14.93;4.03;;;11.00;64.50;;;;;;5047510;28;20132;-63
2021/03/21 09:01:25;;;;;;;17.02;3.15;;;11.10;65.00;;;;;;5054637;28;20052;-63
2021/03/21 09:04:07;;;;;;;17.50;3.92;;;11.10;64.20;;;;;;5045893;28;20467;-63
2021/03/21 09:06:40;;;;;;;18.83;3.05;;;11.10;63.00;;;;;;5044479;28;20040;-63
2021/03/21 09:09:26;;;;;;;15.95;3.92;;;11.10;63.70;;;;;;5047609;28;20638;-62
2021/03/21 09:11:57;;;;;;;16.30;4.97;;;11.10;61.00;;;;;;5044287;28;20017;-62
2021/03/21 09:14:34;;;;;;;19.60;4.07;;;11.10;61.60;;;;;;5045991;28;20124;-64
2021/03/21 09:17:04;;;;;;;14.70;3.63;;;11.20;62.00;;;;;;5055831;28;20028;-64
2021/03/21 09:19:36;;;;;;;21.08;4.00;;;11.40;60.50;;;;;;5043744;28;20025;-63
2021/03/21 09:22:27;;;;;;;13.88;3.20;;;11.80;59.50;;;;;;5045323;28;20025;-63
2021/03/21 09:25:25;;;;;;;18.02;4.75;;;13.00;56.20;;;;;;5043390;28;20087;-64
2021/03/21 09:27:53;;;;;;;19.20;3.75;;;12.90;55.70;;;;;;5057682;28;20355;-62
2021/03/21 09:30:27;;;;;;;13.65;3.63;;;12.70;55.30;;;;;;5043558;28;20522;-62
2021/03/21 09:33:07;;;;;;;16.88;3.75;;;12.50;55.50;;;;;;5039749;28;20047;-63
2021/03/21 09:35:47;;;;;;;29.00;5.72;;;12.20;55.70;;;;;;5042971;28;20029;-63
2021/03/21 09:38:12;;;;;;;22.23;4.63;;;12.00;55.60;;;;;;5043094;28;20029;-63
2021/03/21 09:40:41;;;;;;;13.10;3.70;;;12.00;56.30;;;;;;5047575;28;20079;-64
2021/03/21 09:43:15;;;;;;;16.15;3.92;;;12.30;55.30;;;;;;5047353;28;20025;-64
2021/03/21 09:45:46;;;;;;;30.13;5.65;;;12.20;55.50;;;;;;5060406;28;20024;-63
2021/03/21 09:48:45;;;;;;;22.65;4.50;;;12.10;55.50;;;;;;5046300;28;20032;-63
2021/03/21 09:51:28;;;;;;;19.83;4.50;;;12.10;56.00;;;;;;5045957;28;20033;-64
2021/03/21 09:54:20;;;;;;;18.27;4.15;;;12.00;56.30;;;;;;5047471;28;20510;-64
2021/03/21 09:56:52;;;;;;;37.47;6.18;;;11.80;54.50;;;;;;5061817;28;20033;-64
2021/03/21 09:59:34;;;;;;;17.02;3.83;;;11.60;54.70;;;;;;5049166;28;20032;-64
2021/03/21 10:02:23;;;;;;;17.73;3.97;;;11.50;55.50;;;;;;5046914;28;20462;-64
2021/03/21 10:05:10;;;;;;;22.80;5.72;;;11.30;56.00;;;;;;5053855;28;20107;-63
2021/03/21 10:07:50;;;;;;;19.00;3.80;;;11.40;55.80;;;;;;5045277;28;20081;-63
2021/03/21 10:10:23;;;;;;;24.90;6.05;;;11.30;56.20;;;;;;5052472;28;20494;-63
2021/03/21 10:12:50;;;;;;;21.27;4.72;;;11.10;56.40;;;;;;5049467;28;20497;-64
2021/03/21 10:15:20;;;;;;;16.98;4.60;;;11.30;57.30;;;;;;5048717;28;20459;-63
2021/03/21 10:17:49;;;;;;;32.53;5.82;;;11.40;57.00;;;;;;5045695;28;20053;-64
2021/03/21 10:20:17;;;;;;;20.58;4.68;;;11.40;56.90;;;;;;5079112;28;20025;-64
2021/03/21 10:22:42;;;;;;;23.13;4.38;;;11.40;56.70;;;;;;5051881;28;20025;-64
2021/03/21 10:25:12;;;;;;;29.95;4.78;;;11.60;56.80;;;;;;5035634;28;20041;-64
2021/03/21 10:27:40;;;;;;;16.88;4.65;;;11.70;55.60;;;;;;5055182;28;20066;-64
2021/03/21 10:30:26;;;;;;;28.40;5.57;;;11.80;54.30;;;;;;5045637;28;20064;-64
2021/03/21 10:32:54;;;;;;;21.10;5.50;;;11.90;54.60;;;;;;5047228;28;20036;-63
2021/03/21 10:35:26;;;;;;;21.23;4.82;;;12.10;54.00;;;;;;5042320;28;20480;-64
2021/03/21 10:37:55;;;;;;;24.77;4.70;;;12.20;54.60;;;;;;5030518;28;20056;-64
2021/03/21 10:40:24;;;;;;;22.65;4.28;;;12.60;53.40;;;;;;5028822;28;20359;-63
2021/03/21 10:43:04;;;;;;;22.73;4.43;;;12.70;53.10;;;;;;5035490;28;20029;-62
2021/03/21 10:45:33;;;;;;;17.08;4.20;;;12.50;53.00;;;;;;5049440;28;20029;-62
2021/03/21 10:48:30;;;;;;;23.58;5.07;;;12.40;53.90;;;;;;5047468;28;20491;-63
2021/03/21 10:51:00;;;;;;;18.08;4.03;;;12.50;54.80;;;;;;5043234;28;20036;-63
2021/03/21 10:54:00;;;;;;;24.35;4.25;;;12.30;53.60;;;;;;5050632;28;20090;-63
2021/03/21 10:56:29;;;;;;;17.13;4.18;;;12.20;54.30;;;;;;5039341;28;20104;-64
2021/03/21 10:59:13;;;;;;;17.42;3.80;;;12.10;53.40;;;;;;5050320;28;20399;-63
2021/03/21 11:01:40;;;;;;;;;;;12.00;53.80;;;;;;5048514;28;20092;-63
2021/03/21 11:04:21;;;;;;;18.33;4.05;;;12.10;54.10;;;;;;5051512;28;19916;-63
2021/03/21 11:07:09;;;;;;;24.00;5.32;;;12.50;54.10;;;;;;5049601;28;20426;-63
2021/03/21 11:09:35;;;;;;;23.38;5.10;;;12.70;53.20;;;;;;5081984;28;20017;-63
2021/03/21 11:12:04;;;;;;;18.75;4.28;;;12.60;52.60;;;;;;5050903;28;20025;-63
2021/03/21 11:14:36;;;;;;;19.67;5.18;;;12.50;53.40;;;;;;5050310;28;20069;-64
2021/03/21 11:17:14;;;;;;;21.45;4.10;;;12.40;53.50;;;;;;5047888;28;20024;-63
2021/03/21 11:19:48;;;;;;;18.60;4.65;;;12.30;52.90;;;;;;5048422;28;20025;-63
2021/03/21 11:22:26;;;;;;;24.25;5.50;;;12.20;53.70;;;;;;5051244;28;20248;-63
2021/03/21 11:24:52;;;;;;;20.13;4.43;;;12.20;53.10;;;;;;5061233;28;20098;-63
2021/03/21 11:27:32;;;;;;;25.70;5.20;;;12.40;52.90;;;;;;5053434;28;20542;-63
2021/03/21 11:30:13;;;;;;;22.17;4.47;;;13.30;50.30;;;;;;5050688;28;20024;-63
2021/03/21 11:32:39;;;;;;;18.08;3.80;;;13.50;49.40;;;;;;5038939;28;20021;-63
2021/03/21 11:35:20;;;;;;;13.25;4.15;;;13.40;49.50;;;;;;5050841;28;20395;-64
2021/03/21 11:37:46;;;;;;;21.65;4.88;;;13.10;49.70;;;;;;5050816;28;20562;-63
2021/03/21 11:40:17;;;;;;;15.73;4.97;;;12.80;50.60;;;;;;5050183;28;20103;-66
2021/03/21 11:42:46;;;;;;;18.80;4.55;;;12.70;50.90;;;;;;5046742;28;20040;-63
2021/03/21 11:45:12;;;;;;;26.58;6.05;;;12.70;50.40;;;;;;5051452;28;20111;-63
2021/03/21 11:47:39;;;;;;;19.95;5.07;;;12.70;50.50;;;;;;5055008;28;20200;-67
2021/03/21 11:50:07;;;;;;;19.10;4.40;;;12.70;50.80;;;;;;5050228;28;20033;-66
2021/03/21 11:52:39;;;;;;;26.42;5.78;;;12.90;51.40;;;;;;5062157;28;20433;-67
2021/03/21 11:55:06;;;;;;;22.25;4.35;;;13.20;50.80;;;;;;5061091;28;20059;-66
2021/03/21 11:58:10;;;;;;;19.17;4.78;;;13.30;50.30;;;;;;5050285;28;20032;-64
2021/03/21 12:00:38;;;;;;;17.40;4.57;;;13.20;49.40;;;;;;5049174;28;20071;-65
2021/03/21 12:03:06;;;;;;;18.38;3.67;;;13.00;50.50;;;;;;5064845;28;20328;-63
2021/03/21 12:05:36;;;;;;;25.55;5.22;;;13.10;50.70;;;;;;5047238;28;20244;-63
2021/03/21 12:08:13;;;;;;;16.75;4.28;;;13.00;50.30;;;;;;5051421;28;20182;-63
2021/03/21 12:10:42;;;;;;;19.25;5.03;;;11.90;50.10;;;;;;5052967;28;20028;-63
2021/03/21 12:13:26;;;;;;;25.50;4.47;;;12.80;51.70;;;;;;5049285;28;20039;-63
2021/03/21 12:15:52;;;;;;;17.33;3.53;;;12.80;52.10;;;;;;5069691;28;20386;-63
2021/03/21 12:18:21;;;;;;;28.55;5.95;;;12.90;52.10;;;;;;5049886;28;20036;-63
2021/03/21 12:20:54;;;;;;;16.55;4.00;;;12.80;52.50;;;;;;5045912;28;20190;-63
2021/03/21 12:23:54;;;;;;;27.73;4.00;;;12.70;52.30;;;;;;5065183;28;20162;-63
2021/03/21 12:26:29;;;;;;;22.77;4.57;;;12.60;52.40;;;;;;5048339;28;20471;-63
2021/03/21 12:29:04;;;;;;;16.40;3.40;;;12.50;52.80;;;;;;5049864;28;20036;-62
2021/03/21 12:31:36;;;;;;;19.77;4.40;;;12.60;52.10;;;;;;5046563;28;20025;-63
2021/03/21 12:34:33;;;;;;;17.38;4.10;;;12.70;51.70;;;;;;5052346;28;20105;-62
2021/03/21 12:37:12;;;;;;;21.05;4.18;;;12.70;51.80;;;;;;5048901;28;20024;-62
2021/03/21 12:39:47;;;;;;;18.08;4.20;;;12.70;51.20;;;;;;5047809;28;20027;-63
2021/03/21 12:42:28;;;;;;;19.40;4.32;;;12.70;52.00;;;;;;5046161;28;20475;-62
2021/03/21 12:45:08;;;;;;;23.05;5.00;;;12.30;51.90;;;;;;5046278;28;20040;-62
2021/03/21 12:47:38;;;;;;;21.98;4.05;;;12.20;52.50;;;;;;5047396;28;20060;-63
2021/03/21 12:50:24;;;;;;;21.20;5.45;;;12.10;52.60;;;;;;5049592;28;20475;-63
2021/03/21 12:52:50;;;;;;;20.13;5.32;;;11.90;52.40;;;;;;5042618;28;20051;-63
2021/03/21 12:55:18;;;;;;;15.15;4.22;;;11.90;52.90;;;;;;5046529;28;20048;-62
2021/03/21 12:57:44;;;;;;;20.15;4.25;;;11.70;53.40;;;;;;5047913;28;20029;-62
2021/03/21 13:00:17;;;;;;;21.20;4.72;;;11.70;54.10;;;;;;5048704;28;20032;-62
2021/03/21 13:02:43;;;;;;;22.63;5.30;;;11.90;53.60;;;;;;5047664;28;20033;-63
2021/03/21 13:05:28;;;;;;;20.02;3.95;;;11.80;54.20;;;;;;5043674;28;20048;-63
2021/03/21 13:07:54;;;;;;;24.10;5.20;;;12.10;52.90;;;;;;5045008;28;20060;-63
2021/03/21 13:10:20;;;;;;;17.73;3.88;;;12.10;52.60;;;;;;5049063;28;20060;-63
2021/03/21 13:12:46;;;;;;;18.58;4.25;;;12.10;53.40;;;;;;5047659;28;20605;-63
2021/03/21 13:15:13;;;;;;;21.00;5.78;;;12.30;51.90;;;;;;5049180;28;20356;-63
2021/03/21 13:17:39;;;;;;;22.88;4.53;;;12.20;51.00;;;;;;5049212;28;20025;-63
2021/03/21 13:20:06;;;;;;;27.73;5.15;;;12.00;51.70;;;;;;5050840;28;20039;-63
2021/03/21 13:22:31;;;;;;;17.15;3.97;;;11.90;52.40;;;;;;5051883;28;20040;-63
2021/03/21 13:24:57;;;;;;;22.05;5.18;;;11.90;51.80;;;;;;5048861;28;20083;-64
2021/03/21 13:27:23;;;;;;;17.23;3.75;;;11.80;52.40;;;;;;5049141;28;20043;-64
2021/03/21 13:29:49;;;;;;;19.77;4.93;;;11.80;53.10;;;;;;5049498;28;20033;-64
2021/03/21 13:32:15;;;;;;;20.00;4.85;;;12.00;53.00;;;;;;5048163;28;20041;-64
2021/03/21 13:34:40;;;;;;;24.02;6.22;;;12.20;52.70;;;;;;5059993;28;20043;-62